createdAt,value
2023-04-16T00:00:52.169Z,100222.55
2023-04-16T00:06:11.879Z,100223.53
2023-04-16T00:11:15.530Z,100221.99
2023-04-16T00:16:19.078Z,100220.21
2023-04-16T00:21:22.400Z,100219.84
2023-04-16T00:26:25.851Z,100220.54
2023-04-16T00:31:31.598Z,100218.36
2023-04-16T00:36:35.242Z,100219.20
2023-04-16T00:41:39.005Z,100223.77
2023-04-16T00:46:43.146Z,100226.81
2023-04-16T00:51:46.970Z,100228.46
2023-04-16T00:56:51.543Z,100228.61
2023-04-16T01:01:55.045Z,100235.22
2023-04-16T01:06:59.272Z,100240.12
2023-04-16T01:12:03.631Z,100239.77
2023-04-16T01:17:10.084Z,100237.66
2023-04-16T01:22:13.560Z,100231.37
2023-04-16T01:27:19.334Z,100236.50
2023-04-16T01:32:48.051Z,100238.05
2023-04-16T01:37:52.170Z,100234.36
2023-04-16T01:42:57.900Z,100239.80
2023-04-16T01:48:01.419Z,100237.58
2023-04-16T01:53:05.318Z,100240.84
2023-04-16T01:58:11.165Z,100245.11
2023-04-16T02:03:17.783Z,100249.17
2023-04-16T02:08:24.477Z,100254.23
2023-04-16T02:13:33.766Z,100257.79
2023-04-16T02:19:07.146Z,100260.00
2023-04-16T02:24:12.202Z,100258.21
2023-04-16T02:29:35.936Z,100263.13
2023-04-16T02:35:00.007Z,100267.96
2023-04-16T02:40:07.102Z,100276.73
2023-04-16T02:45:22.597Z,100282.58
2023-04-16T02:50:40.228Z,100289.37
2023-04-16T02:55:55.904Z,100293.02
2023-04-16T03:01:19.540Z,100300.46
2023-04-16T03:06:38.840Z,100302.72
2023-04-16T03:11:53.569Z,100305.12
2023-04-16T03:16:57.942Z,100302.33
2023-04-16T03:22:01.324Z,100304.52
2023-04-16T03:27:07.279Z,100304.84
2023-04-16T03:32:12.661Z,100308.48
2023-04-16T03:37:16.270Z,100308.99
2023-04-16T03:42:22.668Z,100310.11
2023-04-16T03:47:34.987Z,100314.64
2023-04-16T03:52:39.248Z,100310.07
2023-04-16T03:57:42.634Z,100313.02
2023-04-16T04:02:49.195Z,100324.05
2023-04-16T04:07:58.100Z,100320.29
2023-04-16T04:13:22.028Z,100327.20
2023-04-16T04:18:26.084Z,100331.13
2023-04-16T04:23:29.658Z,100333.52
2023-04-16T04:28:33.971Z,100337.59
2023-04-16T04:33:37.709Z,100341.69
2023-04-16T04:38:41.063Z,100346.80
2023-04-16T04:43:44.527Z,100351.39
2023-04-16T04:48:48.552Z,100355.17
2023-04-16T04:53:52.661Z,100363.86
2023-04-16T04:58:56.409Z,100365.98
2023-04-16T05:04:00.544Z,100370.93
2023-04-16T05:09:04.033Z,100371.46
2023-04-16T05:14:08.302Z,100369.82
2023-04-16T05:19:12.029Z,100368.89
2023-04-16T05:24:15.874Z,100376.50
2023-04-16T05:29:22.172Z,100382.00
2023-04-16T05:34:26.213Z,100385.39
2023-04-16T05:39:32.059Z,100384.71
2023-04-16T05:44:35.595Z,100387.59
2023-04-16T05:49:54.185Z,100389.79
2023-04-16T05:55:01.666Z,100397.09
2023-04-16T06:00:06.360Z,100401.35
2023-04-16T06:05:15.424Z,100406.73
2023-04-16T06:10:19.007Z,100412.24
2023-04-16T06:15:30.123Z,100413.92
2023-04-16T06:20:33.659Z,100421.73
2023-04-16T06:25:48.232Z,100424.80
2023-04-16T06:30:51.685Z,100439.52
2023-04-16T06:36:00.311Z,100438.14
2023-04-16T06:41:10.948Z,100435.28
2023-04-16T06:46:14.709Z,100430.58
2023-04-16T06:51:21.947Z,100431.91
2023-04-16T06:56:28.032Z,100434.45
2023-04-16T07:02:12.478Z,100441.23
2023-04-16T07:07:15.976Z,100445.73
2023-04-16T07:12:34.025Z,100451.64
2023-04-16T07:17:37.607Z,100453.11
2023-04-16T07:22:41.397Z,100461.31
2023-04-16T07:27:44.971Z,100466.46
2023-04-16T07:32:48.566Z,100474.08
2023-04-16T07:37:52.168Z,100484.96
2023-04-16T07:42:56.326Z,100476.91
2023-04-16T07:47:59.746Z,100477.48
2023-04-16T07:53:03.544Z,100490.48
2023-04-16T07:58:07.999Z,100500.91
2023-04-16T08:03:16.456Z,100504.23
2023-04-16T08:08:20.114Z,100510.34
2023-04-16T08:13:24.152Z,100516.73
2023-04-16T08:18:27.494Z,100519.11
2023-04-16T08:23:51.522Z,100517.53
2023-04-16T08:28:54.812Z,100522.83
2023-04-16T08:33:58.112Z,100520.27
2023-04-16T08:39:03.945Z,100517.71
2023-04-16T08:44:10.180Z,100519.36
2023-04-16T08:49:18.332Z,100520.80
2023-04-16T08:55:03.618Z,100526.95
2023-04-16T09:00:09.019Z,100533.10
2023-04-16T09:05:20.776Z,100533.23
2023-04-16T09:10:27.196Z,100537.55
2023-04-16T09:15:31.479Z,100535.05
2023-04-16T09:20:36.367Z,100538.02
2023-04-16T09:25:42.257Z,100545.50
2023-04-16T09:30:45.656Z,100549.63
2023-04-16T09:35:53.075Z,100561.38
2023-04-16T09:41:09.159Z,100561.92
2023-04-16T09:46:13.071Z,100560.11
2023-04-16T09:51:16.544Z,100560.34
2023-04-16T09:56:25.201Z,100569.73
2023-04-16T10:01:31.060Z,100574.80
2023-04-16T10:06:36.564Z,100579.05
2023-04-16T10:11:40.746Z,100581.63
2023-04-16T10:16:54.901Z,100583.30
2023-04-16T10:21:59.303Z,100584.79
2023-04-16T10:27:02.985Z,100588.56
2023-04-16T10:32:29.017Z,100592.27
2023-04-16T10:37:34.688Z,100602.98
2023-04-16T10:42:41.797Z,100599.04
2023-04-16T10:47:56.605Z,100598.91
2023-04-16T10:53:22.925Z,100598.94
2023-04-16T10:58:35.386Z,100601.48
2023-04-16T11:03:42.955Z,100603.77
2023-04-16T11:08:54.562Z,100604.54
2023-04-16T11:13:59.198Z,100610.95
2023-04-16T11:19:02.576Z,100616.27
2023-04-16T11:24:05.970Z,100620.20
2023-04-16T11:29:17.650Z,100620.70
2023-04-16T11:34:21.477Z,100621.04
2023-04-16T11:39:25.004Z,100620.92
2023-04-16T11:44:29.584Z,100626.15
2023-04-16T11:49:33.324Z,100623.50
2023-04-16T11:54:38.106Z,100619.52
2023-04-16T12:00:01.812Z,100617.31
2023-04-16T12:05:37.358Z,100604.16
2023-04-16T12:10:54.771Z,100608.03
2023-04-16T12:16:02.102Z,100610.26
2023-04-16T12:21:08.110Z,100606.45
2023-04-16T12:26:12.372Z,100605.43
2023-04-16T12:31:38.435Z,100602.33
2023-04-16T12:36:43.039Z,100602.76
2023-04-16T12:41:46.417Z,100597.92
2023-04-16T12:46:49.790Z,100598.38
2023-04-16T12:51:53.158Z,100593.61
2023-04-16T12:56:57.074Z,100590.48
2023-04-16T13:02:02.449Z,100585.98
2023-04-16T13:07:06.217Z,100589.50
2023-04-16T13:12:09.532Z,100590.44
2023-04-16T13:17:12.877Z,100587.04
2023-04-16T13:22:16.166Z,100583.00
2023-04-16T13:27:20.393Z,100578.66
2023-04-16T13:32:24.047Z,100579.95
2023-04-16T13:37:27.330Z,100583.31
2023-04-16T13:42:30.701Z,100591.95
2023-04-16T13:47:34.126Z,100590.38
2023-04-16T13:52:37.460Z,100589.27
2023-04-16T13:57:41.482Z,100593.18
2023-04-16T14:02:49.044Z,100591.46
2023-04-16T14:07:52.870Z,100599.56
2023-04-16T14:12:57.565Z,100598.30
2023-04-16T14:18:04.256Z,100591.59
2023-04-16T14:23:07.765Z,100589.41
2023-04-16T14:28:11.664Z,100590.72
2023-04-16T14:33:16.004Z,100593.79
2023-04-16T14:38:19.671Z,100591.11
2023-04-16T14:43:23.008Z,100589.26
2023-04-16T14:48:26.452Z,100592.33
2023-04-16T14:53:50.038Z,100593.83
2023-04-16T14:58:53.344Z,100596.05
2023-04-16T15:03:57.499Z,100596.19
2023-04-16T15:09:05.184Z,100604.13
2023-04-16T15:14:08.573Z,100604.98
2023-04-16T15:19:12.561Z,100601.67
2023-04-16T15:24:16.015Z,100611.77
2023-04-16T15:29:19.447Z,100612.05
2023-04-16T15:34:22.795Z,100608.25
2023-04-16T15:39:26.102Z,100613.08
2023-04-16T15:44:31.329Z,100621.05
2023-04-16T15:49:35.153Z,100621.97
2023-04-16T15:54:38.476Z,100628.45
2023-04-16T15:59:42.699Z,100625.47
2023-04-16T16:04:48.373Z,100625.02
2023-04-16T16:09:53.165Z,100632.19
2023-04-16T16:14:56.874Z,100633.71
2023-04-16T16:20:00.440Z,100642.48
2023-04-16T16:25:04.456Z,100651.84
2023-04-16T16:30:08.911Z,100655.04
2023-04-16T16:35:12.761Z,100655.30
2023-04-16T16:40:16.192Z,100654.24
2023-04-16T16:45:27.236Z,100666.06
2023-04-16T16:50:33.386Z,100670.70
2023-04-16T16:55:36.793Z,100676.39
2023-04-16T17:00:40.506Z,100687.02
2023-04-16T17:06:02.332Z,100688.41
2023-04-16T17:11:05.650Z,100693.55
2023-04-16T17:16:09.208Z,100698.09
2023-04-16T17:21:14.027Z,100701.79
2023-04-16T17:26:18.497Z,100708.35
2023-04-16T17:31:22.688Z,100708.74
2023-04-16T17:36:27.320Z,100715.02
2023-04-16T17:41:31.122Z,100721.59
2023-04-16T17:46:34.933Z,100725.20
2023-04-16T17:51:38.670Z,100727.51
2023-04-16T17:56:42.229Z,100730.52
2023-04-16T18:01:49.774Z,100737.09
2023-04-16T18:07:14.757Z,100747.13
2023-04-16T18:12:18.383Z,100752.91
2023-04-16T18:17:24.792Z,100756.49
2023-04-16T18:22:28.750Z,100762.63
2023-04-16T18:27:32.383Z,100767.61
2023-04-16T18:32:37.339Z,100769.94
2023-04-16T18:38:14.399Z,100771.90
2023-04-16T18:43:28.975Z,100775.73
2023-04-16T18:48:48.266Z,100772.54
2023-04-16T18:54:28.337Z,100773.27
2023-04-16T18:59:31.804Z,100774.32
2023-04-16T19:05:15.552Z,100768.34
2023-04-16T19:10:19.150Z,100777.25
2023-04-16T19:15:24.763Z,100778.73
2023-04-16T19:20:33.646Z,100778.51
2023-04-16T19:25:37.090Z,100775.34
2023-04-16T19:30:40.962Z,100778.27
2023-04-16T19:35:54.787Z,100780.40
2023-04-16T19:40:58.276Z,100773.19
2023-04-16T19:46:01.693Z,100772.76
2023-04-16T19:51:05.745Z,100771.84
2023-04-16T19:56:09.364Z,100771.06
2023-04-16T20:01:12.762Z,100774.48
2023-04-16T20:06:17.768Z,100770.08
2023-04-16T20:11:31.058Z,100769.63
2023-04-16T20:16:35.230Z,100774.92
2023-04-16T20:21:41.495Z,100781.66
2023-04-16T20:26:44.924Z,100778.10
2023-04-16T20:31:54.276Z,100775.45
2023-04-16T20:36:58.182Z,100776.43
2023-04-16T20:42:04.445Z,100779.56
2023-04-16T20:47:07.856Z,100776.70
2023-04-16T20:52:11.501Z,100778.83
2023-04-16T20:57:14.965Z,100777.48
2023-04-16T21:02:18.548Z,100780.64
2023-04-16T21:07:32.439Z,100774.77
2023-04-16T21:12:36.601Z,100771.38
2023-04-16T21:17:40.098Z,100772.85
2023-04-16T21:22:43.481Z,100777.92
2023-04-16T21:27:47.148Z,100774.65
2023-04-16T21:33:14.765Z,100768.46
2023-04-16T21:38:18.723Z,100775.55
2023-04-16T21:43:23.114Z,100775.58
2023-04-16T21:48:28.598Z,100773.21
2023-04-16T21:53:34.777Z,100775.88
2023-04-16T21:58:38.361Z,100778.88
2023-04-16T22:03:42.248Z,100776.58
2023-04-16T22:08:50.263Z,100774.45
2023-04-16T22:13:57.957Z,100775.66
2023-04-16T22:19:07.466Z,100774.10
2023-04-16T22:24:11.112Z,100775.58
2023-04-16T22:29:14.490Z,100777.59
2023-04-16T22:34:20.333Z,100778.69
2023-04-16T22:39:34.953Z,100781.05
2023-04-16T22:44:38.501Z,100782.39
2023-04-16T22:49:42.227Z,100784.73
2023-04-16T22:54:47.818Z,100783.48
2023-04-16T23:00:21.722Z,100779.46
2023-04-16T23:05:26.002Z,100774.65
2023-04-16T23:10:32.701Z,100774.38
2023-04-16T23:15:39.273Z,100771.89
2023-04-16T23:20:42.827Z,100777.48
2023-04-16T23:25:46.173Z,100770.00
2023-04-16T23:30:55.176Z,100770.48
2023-04-16T23:36:18.873Z,100766.73
2023-04-16T23:41:23.778Z,100765.45
2023-04-16T23:46:30.135Z,100757.24
2023-04-16T23:51:33.750Z,100759.11
2023-04-16T23:56:39.478Z,100763.19
